createdAt,value
2022-08-02T00:00:41.083Z,2.20
2022-08-02T00:03:09.191Z,2.20
2022-08-02T00:05:37.286Z,2.03
2022-08-02T00:08:05.773Z,2.50
2022-08-02T00:10:52.978Z,3.42
2022-08-02T00:13:21.051Z,3.20
2022-08-02T00:15:49.108Z,3.45
2022-08-02T00:18:17.077Z,3.13
2022-08-02T00:20:45.290Z,3.10
2022-08-02T00:23:13.320Z,3.28
2022-08-02T00:25:55.312Z,3.53
2022-08-02T00:28:27.894Z,3.10
2022-08-02T00:30:57.422Z,3.50
2022-08-02T00:34:27.638Z,3.38
2022-08-02T00:36:14.020Z,2.80
2022-08-02T00:38:41.968Z,2.85
2022-08-02T00:41:14.299Z,2.88
2022-08-02T00:43:43.981Z,3.30
2022-08-02T00:46:12.796Z,3.30
2022-08-02T00:48:43.209Z,3.20
2022-08-02T00:51:12.367Z,3.60
2022-08-02T00:53:40.491Z,2.70
2022-08-02T00:56:08.843Z,2.75
2022-08-02T00:58:37.572Z,2.85
2022-08-02T01:01:06.997Z,3.80
2022-08-02T01:03:35.045Z,3.40
2022-08-02T01:06:18.223Z,3.22
2022-08-02T01:08:46.531Z,3.65
2022-08-02T01:11:14.575Z,3.03
2022-08-02T01:13:43.177Z,3.70
2022-08-02T01:16:17.252Z,3.15
2022-08-02T01:18:50.920Z,3.72
2022-08-02T01:21:35.664Z,3.03
2022-08-02T01:24:22.266Z,2.55
2022-08-02T01:26:56.128Z,2.55
2022-08-02T01:29:30.277Z,2.40
2022-08-02T01:32:05.214Z,2.80
2022-08-02T01:34:38.583Z,3.10
2022-08-02T01:37:17.794Z,3.10
2022-08-02T01:39:48.447Z,2.75
2022-08-02T01:42:17.847Z,3.00
2022-08-02T01:44:50.697Z,3.20
2022-08-02T01:47:25.519Z,2.70
2022-08-02T01:49:57.479Z,2.80
2022-08-02T01:52:28.095Z,3.45
2022-08-02T01:55:02.903Z,3.20
2022-08-02T01:57:41.975Z,3.00
2022-08-02T02:00:13.172Z,3.33
2022-08-02T02:02:44.720Z,3.05
2022-08-02T02:05:16.927Z,2.78
2022-08-02T02:07:46.997Z,2.22
2022-08-02T02:10:17.793Z,3.25
2022-08-02T02:12:51.174Z,3.40
2022-08-02T02:15:24.127Z,2.88
2022-08-02T02:18:11.386Z,2.90
2022-08-02T02:20:43.123Z,2.60
2022-08-02T02:23:11.335Z,2.85
2022-08-02T02:25:46.506Z,2.90
2022-08-02T02:28:22.331Z,2.65
2022-08-02T02:30:56.341Z,3.50
2022-08-02T02:33:29.299Z,3.10
2022-08-02T02:35:59.147Z,2.85
2022-08-02T02:38:31.800Z,3.30
2022-08-02T02:41:02.725Z,2.65
2022-08-02T02:43:32.616Z,3.20
2022-08-02T02:46:04.881Z,2.67
2022-08-02T02:48:33.510Z,2.45
2022-08-02T02:51:04.649Z,2.85
2022-08-02T02:54:31.041Z,3.13
2022-08-02T02:56:26.201Z,2.83
2022-08-02T02:58:55.132Z,3.08
2022-08-02T03:01:55.140Z,2.35
2022-08-02T03:04:19.853Z,3.05
2022-08-02T03:06:48.152Z,3.10
2022-08-02T03:09:16.084Z,3.13
2022-08-02T03:11:44.491Z,2.80
2022-08-02T03:14:13.484Z,3.05
2022-08-02T03:16:48.047Z,2.92
2022-08-02T03:19:16.654Z,2.75
2022-08-02T03:21:45.243Z,3.05
2022-08-02T03:24:14.619Z,3.60
2022-08-02T03:26:43.140Z,2.90
2022-08-02T03:29:11.546Z,3.20
2022-08-02T03:31:42.730Z,3.25
2022-08-02T03:34:12.381Z,3.40
2022-08-02T03:36:43.152Z,3.25
2022-08-02T03:39:14.056Z,2.70
2022-08-02T03:41:43.140Z,3.60
2022-08-02T03:44:13.644Z,3.50
2022-08-02T03:46:43.662Z,3.20
2022-08-02T03:49:16.511Z,2.75
2022-08-02T03:51:45.774Z,2.90
2022-08-02T03:54:14.632Z,2.58
2022-08-02T03:56:43.100Z,2.75
2022-08-02T03:59:12.764Z,3.30
2022-08-02T04:01:43.011Z,2.90
2022-08-02T04:04:11.096Z,3.08
2022-08-02T04:06:41.662Z,3.00
2022-08-02T04:09:10.021Z,3.80
2022-08-02T04:11:38.204Z,3.47
2022-08-02T04:14:11.298Z,3.90
2022-08-02T04:16:43.363Z,3.00
2022-08-02T04:19:15.449Z,2.90
2022-08-02T04:21:51.169Z,3.28
2022-08-02T04:24:25.041Z,3.63
2022-08-02T04:27:06.782Z,3.00
2022-08-02T04:29:46.970Z,2.85
2022-08-02T04:32:16.123Z,2.40
2022-08-02T04:34:54.244Z,2.65
2022-08-02T04:37:35.723Z,3.45
2022-08-02T04:40:03.953Z,2.50
2022-08-02T04:42:31.931Z,2.58
2022-08-02T04:45:00.117Z,2.88
2022-08-02T04:48:01.491Z,2.85
2022-08-02T04:50:16.291Z,3.38
2022-08-02T04:52:46.053Z,3.08
2022-08-02T04:55:14.212Z,3.40
2022-08-02T04:57:57.808Z,2.90
2022-08-02T05:00:26.887Z,2.70
2022-08-02T05:02:56.491Z,2.78
2022-08-02T05:05:24.686Z,3.70
2022-08-02T05:07:54.525Z,2.95
2022-08-02T05:10:23.150Z,3.20
2022-08-02T05:12:51.868Z,3.10
2022-08-02T05:15:20.138Z,4.38
2022-08-02T05:17:49.586Z,3.78
2022-08-02T05:20:18.642Z,3.30
2022-08-02T05:22:46.822Z,3.03
2022-08-02T05:25:16.590Z,3.60
2022-08-02T05:27:44.632Z,2.88
2022-08-02T05:30:13.370Z,3.30
2022-08-02T05:32:48.609Z,3.15
2022-08-02T05:35:20.101Z,3.30
2022-08-02T05:37:48.725Z,3.53
2022-08-02T05:40:25.360Z,3.53
2022-08-02T05:42:53.978Z,3.28
2022-08-02T05:45:22.105Z,3.70
2022-08-02T05:47:50.360Z,3.38
2022-08-02T05:50:18.922Z,2.78
2022-08-02T05:52:51.406Z,3.28
2022-08-02T05:55:28.406Z,2.90
2022-08-02T05:58:03.166Z,2.67
2022-08-02T06:00:33.449Z,3.53
2022-08-02T06:03:16.583Z,3.00
2022-08-02T06:05:52.214Z,2.60
2022-08-02T06:08:21.822Z,3.05
2022-08-02T06:10:53.169Z,2.35
2022-08-02T06:13:29.806Z,2.08
2022-08-02T06:15:59.539Z,2.65
2022-08-02T06:18:29.230Z,2.83
2022-08-02T06:22:29.642Z,2.50
2022-08-02T06:23:58.114Z,2.55
2022-08-02T06:26:29.584Z,3.72
2022-08-02T06:28:59.125Z,3.08
2022-08-02T06:31:27.199Z,3.05
2022-08-02T06:33:55.221Z,3.28
2022-08-02T06:36:28.686Z,3.60
2022-08-02T06:39:04.201Z,4.25
2022-08-02T06:41:40.523Z,3.45
2022-08-02T06:44:44.719Z,3.40
2022-08-02T06:47:12.482Z,3.88
2022-08-02T06:49:52.542Z,3.30
2022-08-02T06:52:27.823Z,3.25
2022-08-02T06:54:57.717Z,2.97
2022-08-02T06:57:27.233Z,4.77
2022-08-02T06:59:55.344Z,3.95
2022-08-02T07:02:23.986Z,4.10
2022-08-02T07:04:52.267Z,4.30
2022-08-02T07:07:20.347Z,3.63
2022-08-02T07:09:56.588Z,4.10
2022-08-02T07:12:32.287Z,4.10
2022-08-02T07:15:00.599Z,3.30
2022-08-02T07:17:28.825Z,4.30
2022-08-02T07:19:57.157Z,3.00
2022-08-02T07:22:27.137Z,3.87
2022-08-02T07:24:56.594Z,3.87
2022-08-02T07:27:24.934Z,4.10
2022-08-02T07:29:54.943Z,3.40
2022-08-02T07:32:25.564Z,4.20
2022-08-02T07:34:55.330Z,5.20
2022-08-02T07:37:54.090Z,4.33
2022-08-02T07:40:20.277Z,4.70
2022-08-02T07:42:52.255Z,3.70
2022-08-02T07:45:23.100Z,4.53
2022-08-02T07:47:51.848Z,5.17
2022-08-02T07:50:21.568Z,5.33
2022-08-02T07:52:49.795Z,5.40
2022-08-02T07:55:40.133Z,4.67
2022-08-02T07:58:11.339Z,6.37
2022-08-02T08:00:43.318Z,5.83
2022-08-02T08:03:11.317Z,5.30
2022-08-02T08:05:39.172Z,6.20
2022-08-02T08:08:07.496Z,5.17
2022-08-02T08:10:35.551Z,5.90
2022-08-02T08:13:03.780Z,5.57
2022-08-02T08:15:31.947Z,5.13
2022-08-02T08:18:01.339Z,5.03
2022-08-02T08:20:29.503Z,5.60
2022-08-02T08:22:57.527Z,5.50
2022-08-02T08:25:27.251Z,5.37
2022-08-02T08:27:55.538Z,6.20
2022-08-02T08:30:23.777Z,5.37
2022-08-02T08:32:52.161Z,5.60
2022-08-02T08:35:21.860Z,5.70
2022-08-02T08:37:50.317Z,5.53
2022-08-02T08:40:19.652Z,6.20
2022-08-02T08:42:48.058Z,5.90
2022-08-02T08:45:17.959Z,5.27
2022-08-02T08:47:52.353Z,4.70
2022-08-02T08:50:26.028Z,5.27
2022-08-02T08:52:58.793Z,5.37
2022-08-02T08:55:28.874Z,6.57
2022-08-02T08:57:59.787Z,5.97
2022-08-02T09:00:30.778Z,5.20
2022-08-02T09:02:59.203Z,5.40
2022-08-02T09:05:28.778Z,6.53
2022-08-02T09:07:56.746Z,5.40
2022-08-02T09:10:36.247Z,5.60
2022-08-02T09:13:38.342Z,5.50
2022-08-02T09:15:59.240Z,5.30
2022-08-02T09:18:43.874Z,5.30
2022-08-02T09:21:13.897Z,5.20
2022-08-02T09:24:18.411Z,4.43
2022-08-02T09:26:47.301Z,5.63
2022-08-02T09:29:16.004Z,4.50
2022-08-02T09:31:49.742Z,5.17
2022-08-02T09:34:19.995Z,5.23
2022-08-02T09:36:54.391Z,5.10
2022-08-02T09:39:23.854Z,5.90
2022-08-02T09:41:52.157Z,5.80
2022-08-02T09:44:20.627Z,6.37
2022-08-02T09:46:48.618Z,6.23
2022-08-02T09:49:18.106Z,6.33
2022-08-02T09:51:53.370Z,5.47
2022-08-02T09:54:24.854Z,5.17
2022-08-02T09:56:55.266Z,4.70
2022-08-02T09:59:25.545Z,5.33
2022-08-02T10:02:01.868Z,5.43
2022-08-02T10:04:34.470Z,4.90
2022-08-02T10:07:23.706Z,4.37
2022-08-02T10:09:52.439Z,4.87
2022-08-02T10:12:22.401Z,4.43
2022-08-02T10:14:52.809Z,5.50
2022-08-02T10:17:22.155Z,5.23
2022-08-02T10:20:02.373Z,5.20
2022-08-02T10:22:35.345Z,5.43
2022-08-02T10:25:05.478Z,4.53
2022-08-02T10:27:55.542Z,4.83
2022-08-02T10:30:25.724Z,5.13
2022-08-02T10:32:56.316Z,5.00
2022-08-02T10:35:26.975Z,3.90
2022-08-02T10:38:03.258Z,4.30
2022-08-02T10:40:44.692Z,5.53
2022-08-02T10:43:13.182Z,4.40
2022-08-02T10:45:41.580Z,4.57
2022-08-02T10:48:14.891Z,5.00
2022-08-02T10:50:56.943Z,4.67
2022-08-02T10:53:34.277Z,4.13
2022-08-02T10:56:09.247Z,3.90
2022-08-02T10:58:38.659Z,3.90
2022-08-02T11:01:38.682Z,4.67
2022-08-02T11:04:15.411Z,3.87
2022-08-02T11:07:14.310Z,5.27
2022-08-02T11:09:46.261Z,4.30
2022-08-02T11:12:16.544Z,5.17
2022-08-02T11:14:46.990Z,4.50
2022-08-02T11:17:16.646Z,4.13
2022-08-02T11:20:19.265Z,4.70
2022-08-02T11:22:49.563Z,4.10
2022-08-02T11:26:03.205Z,4.40
2022-08-02T11:28:26.598Z,4.33
2022-08-02T11:30:59.071Z,4.30
2022-08-02T11:33:37.278Z,3.90
2022-08-02T11:36:08.448Z,4.37
2022-08-02T11:38:36.821Z,3.83
2022-08-02T11:41:10.310Z,4.13
2022-08-02T11:43:39.812Z,4.17
2022-08-02T11:46:15.264Z,3.60
2022-08-02T11:48:45.064Z,4.13
2022-08-02T11:51:16.314Z,3.53
2022-08-02T11:53:47.071Z,4.03
2022-08-02T11:56:25.281Z,3.37
2022-08-02T11:59:05.288Z,3.00
2022-08-02T12:01:36.844Z,3.63
2022-08-02T12:04:16.853Z,4.10
2022-08-02T12:06:45.707Z,3.80
2022-08-02T12:09:18.903Z,4.50
2022-08-02T12:11:52.056Z,4.00
2022-08-02T12:14:20.525Z,4.10
2022-08-02T12:17:06.935Z,4.00
2022-08-02T12:19:36.451Z,3.37
2022-08-02T12:22:10.471Z,4.03
2022-08-02T12:24:41.067Z,4.00
2022-08-02T12:27:11.597Z,3.30
2022-08-02T12:29:58.090Z,3.63
2022-08-02T12:32:27.810Z,3.70
2022-08-02T12:35:03.780Z,4.17
2022-08-02T12:37:32.233Z,3.33
2022-08-02T12:40:00.523Z,4.00
2022-08-02T12:42:30.393Z,3.40
2022-08-02T12:45:00.777Z,3.83
2022-08-02T12:47:35.729Z,2.70
2022-08-02T12:50:16.542Z,3.30
2022-08-02T12:52:47.045Z,3.40
2022-08-02T12:55:21.220Z,3.20
2022-08-02T12:57:59.633Z,3.97
2022-08-02T13:00:33.029Z,3.73
2022-08-02T13:03:01.576Z,3.80
2022-08-02T13:05:56.981Z,3.30
2022-08-02T13:08:20.933Z,3.67
2022-08-02T13:10:49.135Z,4.13
2022-08-02T13:13:18.642Z,3.40
2022-08-02T13:15:50.565Z,4.30
2022-08-02T13:18:19.771Z,3.47
2022-08-02T13:20:48.333Z,3.70
2022-08-02T13:23:21.757Z,4.27
2022-08-02T13:25:52.730Z,3.80
2022-08-02T13:28:22.914Z,3.60
2022-08-02T13:30:51.572Z,4.17
2022-08-02T13:33:19.847Z,3.73
2022-08-02T13:35:49.401Z,3.27
2022-08-02T13:38:20.781Z,3.10
2022-08-02T13:41:10.280Z,3.50
2022-08-02T13:43:52.784Z,2.77
2022-08-02T13:46:29.105Z,3.63
2022-08-02T13:48:58.036Z,4.20
2022-08-02T13:51:26.432Z,3.30
2022-08-02T13:53:54.778Z,3.40
2022-08-02T13:56:35.614Z,3.50
2022-08-02T13:59:57.558Z,3.50
2022-08-02T14:01:54.473Z,3.67
2022-08-02T14:04:23.073Z,3.07
2022-08-02T14:06:51.690Z,3.47
2022-08-02T14:09:20.430Z,3.20
2022-08-02T14:11:49.407Z,3.27
2022-08-02T14:14:19.461Z,3.10
2022-08-02T14:16:48.474Z,3.00
2022-08-02T14:19:17.456Z,3.83
2022-08-02T14:21:47.908Z,3.40
2022-08-02T14:24:17.260Z,3.43
2022-08-02T14:26:46.007Z,3.30
2022-08-02T14:29:14.746Z,4.03
2022-08-02T14:31:45.301Z,3.40
2022-08-02T14:34:14.306Z,3.70
2022-08-02T14:36:42.823Z,3.13
2022-08-02T14:39:12.085Z,3.43
2022-08-02T14:41:59.777Z,2.83
2022-08-02T14:44:29.159Z,3.13
2022-08-02T14:46:59.174Z,2.63
2022-08-02T14:49:27.637Z,3.43
2022-08-02T14:51:58.473Z,3.30
2022-08-02T14:54:30.528Z,3.70
2022-08-02T14:57:00.686Z,3.70
2022-08-02T14:59:29.196Z,3.87
2022-08-02T15:01:59.677Z,3.63
2022-08-02T15:04:28.616Z,3.20
2022-08-02T15:07:05.848Z,3.70
2022-08-02T15:09:34.113Z,3.60
2022-08-02T15:12:08.497Z,3.40
2022-08-02T15:14:37.092Z,3.50
2022-08-02T15:17:10.666Z,3.13
2022-08-02T15:19:58.473Z,2.83
2022-08-02T15:22:28.876Z,3.70
2022-08-02T15:24:57.749Z,3.50
2022-08-02T15:27:26.419Z,3.40
2022-08-02T15:30:00.167Z,3.10
2022-08-02T15:32:30.272Z,3.23
2022-08-02T15:34:58.650Z,3.27
2022-08-02T15:37:31.141Z,3.33
2022-08-02T15:40:00.279Z,3.13
2022-08-02T15:42:30.524Z,3.23
2022-08-02T15:45:00.848Z,3.10
2022-08-02T15:47:30.560Z,3.20
2022-08-02T15:49:59.065Z,3.43
2022-08-02T15:52:27.723Z,3.57
2022-08-02T15:54:56.173Z,4.00
2022-08-02T15:57:24.676Z,3.63
2022-08-02T15:59:54.189Z,3.53
2022-08-02T16:02:22.819Z,2.97
2022-08-02T16:04:52.548Z,3.10
2022-08-02T16:07:20.793Z,3.50
2022-08-02T16:09:49.107Z,3.97
2022-08-02T16:12:17.524Z,3.10
2022-08-02T16:14:45.803Z,2.87
2022-08-02T16:17:14.190Z,3.40
2022-08-02T16:20:04.641Z,3.30
2022-08-02T16:22:32.997Z,2.97
2022-08-02T16:25:01.508Z,3.97
2022-08-02T16:27:32.083Z,3.47
2022-08-02T16:30:00.513Z,3.87
2022-08-02T16:32:28.910Z,3.10
2022-08-02T16:35:08.089Z,3.13
2022-08-02T16:37:52.114Z,3.50
2022-08-02T16:40:21.235Z,3.40
2022-08-02T16:42:50.636Z,3.30
2022-08-02T16:45:20.989Z,3.90
2022-08-02T16:47:57.285Z,2.93
2022-08-02T16:50:29.527Z,3.50
2022-08-02T16:52:59.445Z,3.57
2022-08-02T16:55:29.084Z,2.77
2022-08-02T16:58:01.691Z,3.10
2022-08-02T17:00:30.643Z,3.20
2022-08-02T17:03:13.338Z,3.23
2022-08-02T17:05:55.995Z,3.23
2022-08-02T17:08:31.700Z,2.90
2022-08-02T17:11:03.553Z,3.33
2022-08-02T17:13:34.230Z,3.43
2022-08-02T17:16:20.966Z,3.37
2022-08-02T17:18:54.195Z,3.43
2022-08-02T17:21:22.503Z,3.90
2022-08-02T17:24:07.730Z,3.63
2022-08-02T17:26:38.101Z,2.97
2022-08-02T17:29:18.319Z,3.20
2022-08-02T17:32:05.353Z,3.20
2022-08-02T17:34:35.039Z,3.50
2022-08-02T17:39:57.069Z,3.60
2022-08-02T17:42:26.308Z,3.80
2022-08-02T17:45:07.170Z,3.63
2022-08-02T17:48:04.884Z,3.57
2022-08-02T17:50:50.391Z,3.30
2022-08-02T17:53:21.178Z,3.50
2022-08-02T17:55:51.212Z,3.00
2022-08-02T17:58:19.773Z,3.47
2022-08-02T18:00:48.129Z,3.53
2022-08-02T18:03:18.167Z,2.87
2022-08-02T18:05:55.337Z,3.07
2022-08-02T18:08:24.296Z,3.23
2022-08-02T18:10:55.821Z,3.23
2022-08-02T18:13:24.793Z,3.50
2022-08-02T18:15:57.160Z,3.47
2022-08-02T18:18:29.469Z,3.23
2022-08-02T18:20:58.776Z,3.53
2022-08-02T18:23:48.685Z,4.00
2022-08-02T18:26:28.708Z,3.20
2022-08-02T18:28:58.083Z,3.73
2022-08-02T18:31:27.210Z,3.37
2022-08-02T18:34:01.953Z,3.40
2022-08-02T18:36:31.430Z,3.37
2022-08-02T18:39:00.207Z,3.30
2022-08-02T18:41:39.851Z,3.23
2022-08-02T18:44:10.878Z,3.60
2022-08-02T18:46:44.202Z,3.00
2022-08-02T18:49:14.837Z,3.20
2022-08-02T18:51:44.269Z,3.30
2022-08-02T18:54:13.049Z,2.97
2022-08-02T18:56:47.457Z,3.20
2022-08-02T18:59:16.211Z,3.00
2022-08-02T19:01:50.426Z,3.63
2022-08-02T19:07:08.484Z,3.70
2022-08-02T19:09:40.171Z,3.37
2022-08-02T19:12:11.777Z,2.90
2022-08-02T19:14:40.501Z,3.90
2022-08-02T19:17:53.586Z,3.20
2022-08-02T19:20:00.024Z,3.30
2022-08-02T19:26:59.126Z,3.70
2022-08-02T19:29:51.025Z,3.97
2022-08-02T19:32:40.792Z,3.57
2022-08-02T19:38:09.372Z,3.30
2022-08-02T19:40:38.766Z,3.50
2022-08-02T19:44:25.693Z,3.40
2022-08-02T19:45:57.474Z,3.13
2022-08-02T19:48:27.234Z,3.17
2022-08-02T19:51:00.807Z,3.50
2022-08-02T19:53:47.620Z,3.13
2022-08-02T19:56:20.587Z,3.10
2022-08-02T19:58:51.196Z,3.40
2022-08-02T20:01:28.265Z,3.37
2022-08-02T20:04:06.144Z,3.10
2022-08-02T20:06:34.523Z,3.97
2022-08-02T20:09:33.374Z,2.93
2022-08-02T20:12:15.647Z,3.30
2022-08-02T20:14:50.656Z,3.30
2022-08-02T20:17:21.686Z,2.87
2022-08-02T20:19:50.154Z,3.53
2022-08-02T20:22:20.602Z,2.83
2022-08-02T20:24:49.117Z,3.20
2022-08-02T20:30:07.730Z,2.80
2022-08-02T20:32:37.393Z,2.93
2022-08-02T20:35:06.699Z,3.37
2022-08-02T20:37:59.421Z,3.47
2022-08-02T20:40:25.110Z,3.53
2022-08-02T20:42:54.333Z,3.50
2022-08-02T20:45:27.139Z,3.57
2022-08-02T20:47:58.557Z,3.60
2022-08-02T20:50:46.356Z,3.23
2022-08-02T20:53:24.170Z,3.50
2022-08-02T20:55:57.639Z,3.20
2022-08-02T20:58:27.246Z,3.60
2022-08-02T21:00:59.378Z,3.67
2022-08-02T21:03:38.764Z,3.80
2022-08-02T21:06:08.972Z,3.03
2022-08-02T21:08:38.242Z,3.77
2022-08-02T21:11:09.645Z,3.50
2022-08-02T21:13:46.781Z,3.50
2022-08-02T21:16:31.139Z,4.20
2022-08-02T21:19:01.036Z,3.57
2022-08-02T21:21:29.631Z,3.80
2022-08-02T21:23:58.798Z,3.60
2022-08-02T21:26:31.208Z,3.90
2022-08-02T21:29:03.588Z,3.20
2022-08-02T21:31:35.916Z,3.27
2022-08-02T21:34:21.546Z,3.67
2022-08-02T21:36:54.842Z,3.47
2022-08-02T21:39:23.152Z,3.07
2022-08-02T21:41:51.589Z,3.50
2022-08-02T21:44:21.751Z,3.07
2022-08-02T21:46:51.690Z,3.20
2022-08-02T21:49:40.534Z,2.90
2022-08-02T21:52:09.728Z,3.20
2022-08-02T21:54:39.745Z,3.63
2022-08-02T21:57:15.450Z,3.13
2022-08-02T21:59:46.500Z,4.03
2022-08-02T22:02:15.179Z,3.60
2022-08-02T22:04:47.640Z,3.40
2022-08-02T22:07:23.543Z,3.60
2022-08-02T22:09:52.905Z,3.43
2022-08-02T22:12:23.711Z,3.37
2022-08-02T22:14:56.506Z,3.70
2022-08-02T22:17:51.036Z,3.20
2022-08-02T22:20:19.777Z,3.20
2022-08-02T22:22:50.684Z,4.00
2022-08-02T22:25:31.056Z,3.60
2022-08-02T22:28:35.453Z,3.70
2022-08-02T22:30:57.346Z,2.80
2022-08-02T22:36:36.082Z,3.30
2022-08-02T22:39:19.452Z,4.20
2022-08-02T22:42:01.682Z,3.50
2022-08-02T22:44:36.652Z,4.00
2022-08-02T22:49:59.218Z,3.67
2022-08-02T22:52:29.518Z,3.00
2022-08-02T22:54:57.855Z,3.70
2022-08-02T22:57:30.276Z,3.60
2022-08-02T22:58:50.892Z,3.57
2022-08-02T22:58:52.376Z,3.43
2022-08-02T22:58:55.566Z,3.00
2022-08-02T22:58:57.369Z,3.23
2022-08-02T22:59:05.142Z,3.20
2022-08-02T22:59:09.877Z,3.80
2022-08-02T23:00:05.602Z,3.43
2022-08-02T23:02:33.964Z,3.73
2022-08-02T23:05:02.239Z,3.80
2022-08-02T23:07:38.903Z,4.20
2022-08-02T23:10:08.875Z,3.83
2022-08-02T23:12:37.220Z,4.03
2022-08-02T23:15:06.240Z,4.23
2022-08-02T23:17:52.933Z,3.60
2022-08-02T23:20:21.856Z,3.63
2022-08-02T23:22:51.791Z,3.50
2022-08-02T23:25:20.105Z,3.70
2022-08-02T23:27:51.180Z,3.30
2022-08-02T23:30:20.832Z,2.90
2022-08-02T23:32:57.724Z,3.50
2022-08-02T23:35:27.126Z,3.67
2022-08-02T23:38:00.930Z,3.53
2022-08-02T23:40:40.611Z,3.13
2022-08-02T23:43:12.562Z,3.50
2022-08-02T23:45:45.782Z,3.13
2022-08-02T23:48:15.668Z,3.10
2022-08-02T23:50:45.251Z,3.83
2022-08-02T23:53:16.481Z,3.20
2022-08-02T23:55:45.806Z,3.73
2022-08-02T23:58:15.281Z,3.40
